createdAt,value
2023-04-22T00:00:30.620Z,51.69
2023-04-22T00:01:30.625Z,40.28
2023-04-22T00:02:30.773Z,45.03
2023-04-22T00:03:30.992Z,55.31
2023-04-22T00:04:30.929Z,41.20
2023-04-22T00:05:30.923Z,40.99
2023-04-22T00:06:31.092Z,48.65
2023-04-22T00:07:31.021Z,53.90
2023-04-22T00:08:31.054Z,48.89
2023-04-22T00:09:31.060Z,50.16
2023-04-22T00:10:31.141Z,52.35
2023-04-22T00:11:31.195Z,61.13
2023-04-22T00:12:31.262Z,58.23
2023-04-22T00:13:31.382Z,62.10
2023-04-22T00:14:31.370Z,62.57
2023-04-22T00:15:31.403Z,58.08
2023-04-22T00:16:31.550Z,49.80
2023-04-22T00:17:31.551Z,56.50
2023-04-22T00:18:31.530Z,50.03
2023-04-22T00:19:31.587Z,52.89
2023-04-22T00:20:31.771Z,30.60
2023-04-22T00:21:31.689Z,25.64
2023-04-22T00:22:31.792Z,33.58
2023-04-22T00:23:31.850Z,45.24
2023-04-22T00:24:31.915Z,41.98
2023-04-22T00:25:31.924Z,26.13
2023-04-22T00:26:31.988Z,31.28
2023-04-22T00:27:32.032Z,39.37
2023-04-22T00:28:32.100Z,35.68
2023-04-22T00:29:32.122Z,33.41
2023-04-22T00:30:32.214Z,34.27
2023-04-22T00:31:32.352Z,34.09
2023-04-22T00:32:32.402Z,49.97
2023-04-22T00:33:32.381Z,54.03
2023-04-22T00:34:32.373Z,39.75
2023-04-22T00:35:32.461Z,32.57
2023-04-22T00:36:32.530Z,26.31
2023-04-22T00:37:32.570Z,39.36
2023-04-22T00:38:32.629Z,42.14
2023-04-22T00:39:32.732Z,35.34
2023-04-22T00:40:32.734Z,42.31
2023-04-22T00:41:32.813Z,61.32
2023-04-22T00:42:32.923Z,67.34
2023-04-22T00:43:33.002Z,46.66
2023-04-22T00:44:32.976Z,33.83
2023-04-22T00:45:32.978Z,37.40
2023-04-22T00:46:33.097Z,34.36
2023-04-22T00:47:33.099Z,38.89
2023-04-22T00:48:33.176Z,49.07
2023-04-22T00:49:33.221Z,47.89
2023-04-22T00:50:33.272Z,51.28
2023-04-22T00:51:33.352Z,39.31
2023-04-22T00:52:33.428Z,34.66
2023-04-22T00:53:33.437Z,37.50
2023-04-22T00:54:33.545Z,50.03
2023-04-22T00:55:33.553Z,56.20
2023-04-22T00:56:33.637Z,37.14
2023-04-22T00:57:33.677Z,41.93
2023-04-22T00:58:33.789Z,50.99
2023-04-22T00:59:33.887Z,57.30
2023-04-22T01:00:33.908Z,47.90
2023-04-22T01:01:34.075Z,51.11
2023-04-22T01:02:34.096Z,49.63
2023-04-22T01:03:34.077Z,54.08
2023-04-22T01:04:34.166Z,57.04
2023-04-22T01:05:34.182Z,40.30
2023-04-22T01:06:34.286Z,57.61
2023-04-22T01:07:34.230Z,53.81
2023-04-22T01:08:34.321Z,52.91
2023-04-22T01:09:34.353Z,56.11
2023-04-22T01:10:34.433Z,49.47
2023-04-22T01:11:34.493Z,46.11
2023-04-22T01:12:34.492Z,48.35
2023-04-22T01:13:34.598Z,50.82
2023-04-22T01:14:34.607Z,41.94
2023-04-22T01:15:34.620Z,39.42
2023-04-22T01:16:34.748Z,37.73
2023-04-22T01:17:34.868Z,42.44
2023-04-22T01:18:34.831Z,55.39
2023-04-22T01:19:34.854Z,65.93
2023-04-22T01:20:34.957Z,66.99
2023-04-22T01:21:35.058Z,68.88
2023-04-22T01:22:35.079Z,75.93
2023-04-22T01:23:35.138Z,68.93
2023-04-22T01:24:35.159Z,76.49
2023-04-22T01:25:35.201Z,63.79
2023-04-22T01:26:35.319Z,57.81
2023-04-22T01:27:35.350Z,74.18
2023-04-22T01:28:35.530Z,60.30
2023-04-22T01:29:35.476Z,53.08
2023-04-22T01:30:35.581Z,66.91
2023-04-22T01:31:35.669Z,85.13
2023-04-22T01:32:35.681Z,72.84
2023-04-22T01:33:35.700Z,74.74
2023-04-22T01:34:35.738Z,78.37
2023-04-22T01:35:35.814Z,82.97
2023-04-22T01:36:35.842Z,77.44
2023-04-22T01:37:35.940Z,94.93
2023-04-22T01:38:35.908Z,91.60
2023-04-22T01:39:35.945Z,91.03
2023-04-22T01:40:35.986Z,89.74
2023-04-22T01:41:36.115Z,91.01
2023-04-22T01:42:36.073Z,88.47
2023-04-22T01:43:36.374Z,85.13
2023-04-22T01:44:36.209Z,92.71
2023-04-22T01:45:36.274Z,112.64
2023-04-22T01:46:36.208Z,98.61
2023-04-22T01:47:36.383Z,91.99
2023-04-22T01:48:36.333Z,87.64
2023-04-22T01:49:36.338Z,77.11
2023-04-22T01:50:36.580Z,65.42
2023-04-22T01:51:36.462Z,92.46
2023-04-22T01:52:36.506Z,82.10
2023-04-22T01:53:36.531Z,80.45
2023-04-22T01:54:36.620Z,84.55
2023-04-22T01:55:36.665Z,97.07
2023-04-22T01:56:36.682Z,82.98
2023-04-22T01:57:36.744Z,108.74
2023-04-22T01:58:36.744Z,97.80
2023-04-22T01:59:36.938Z,96.92
2023-04-22T02:00:36.831Z,116.45
2023-04-22T02:01:36.958Z,114.85
2023-04-22T02:02:36.989Z,121.17
2023-04-22T02:03:37.003Z,120.13
2023-04-22T02:04:37.195Z,112.58
2023-04-22T02:05:37.044Z,120.31
2023-04-22T02:06:37.112Z,128.57
2023-04-22T02:07:37.120Z,125.90
2023-04-22T02:08:37.129Z,126.38
2023-04-22T02:09:37.397Z,120.09
2023-04-22T02:10:37.207Z,120.20
2023-04-22T02:11:37.213Z,135.24
2023-04-22T02:12:37.215Z,121.47
2023-04-22T02:13:37.281Z,141.97
2023-04-22T02:14:37.171Z,146.57
2023-04-22T02:15:37.213Z,139.15
2023-04-22T02:16:37.292Z,128.51
2023-04-22T02:17:37.176Z,129.01
2023-04-22T02:18:37.187Z,112.69
2023-04-22T02:19:37.464Z,96.43
2023-04-22T02:20:37.209Z,97.08
2023-04-22T02:21:37.183Z,100.79
2023-04-22T02:22:37.176Z,84.33
2023-04-22T02:23:37.240Z,86.64
2023-04-22T02:24:37.199Z,98.49
2023-04-22T02:25:37.129Z,98.40
2023-04-22T02:26:37.137Z,106.71
2023-04-22T02:27:37.151Z,103.93
2023-04-22T02:28:37.156Z,99.17
2023-04-22T02:29:37.678Z,100.34
2023-04-22T02:30:37.183Z,88.08
2023-04-22T02:31:37.238Z,90.97
2023-04-22T02:32:37.211Z,81.29
2023-04-22T02:33:37.148Z,79.84
2023-04-22T02:34:37.177Z,76.93
2023-04-22T02:35:37.163Z,73.63
2023-04-22T02:36:37.106Z,83.82
2023-04-22T02:37:37.177Z,90.62
2023-04-22T02:38:37.239Z,90.95
2023-04-22T02:39:37.314Z,93.42
2023-04-22T02:40:37.140Z,89.34
2023-04-22T02:41:37.138Z,79.89
2023-04-22T02:42:37.172Z,80.69
2023-04-22T02:43:37.162Z,82.38
2023-04-22T02:44:37.241Z,92.42
2023-04-22T02:45:37.172Z,98.27
2023-04-22T02:46:37.265Z,104.86
2023-04-22T02:47:37.231Z,117.84
2023-04-22T02:48:37.191Z,105.88
2023-04-22T02:49:37.492Z,121.04
2023-04-22T02:50:37.220Z,113.23
2023-04-22T02:51:37.202Z,125.03
2023-04-22T02:52:37.214Z,135.64
2023-04-22T02:53:37.222Z,134.29
2023-04-22T02:54:37.275Z,139.96
2023-04-22T02:55:37.258Z,142.03
2023-04-22T02:56:37.207Z,148.34
2023-04-22T02:57:37.217Z,141.73
2023-04-22T02:58:37.217Z,139.82
2023-04-22T02:59:37.631Z,133.09
2023-04-22T03:00:37.249Z,135.85
2023-04-22T03:01:37.276Z,130.67
2023-04-22T03:02:37.439Z,124.73
2023-04-22T03:03:37.497Z,125.85
2023-04-22T03:04:37.214Z,130.35
2023-04-22T03:05:37.257Z,139.58
2023-04-22T03:06:37.322Z,145.76
2023-04-22T03:07:37.246Z,141.31
2023-04-22T03:08:37.224Z,162.04
2023-04-22T03:09:37.649Z,147.13
2023-04-22T03:10:37.242Z,154.11
2023-04-22T03:11:37.240Z,156.87
2023-04-22T03:12:37.250Z,155.17
2023-04-22T03:13:37.272Z,167.79
2023-04-22T03:14:37.295Z,179.25
2023-04-22T03:15:37.232Z,177.26
2023-04-22T03:16:37.370Z,175.69
2023-04-22T03:17:37.269Z,179.43
2023-04-22T03:18:37.253Z,186.33
2023-04-22T03:19:37.402Z,182.36
2023-04-22T03:20:37.276Z,177.09
2023-04-22T03:21:37.272Z,185.67
2023-04-22T03:22:37.282Z,183.15
2023-04-22T03:23:37.242Z,178.94
2023-04-22T03:24:37.274Z,183.66
2023-04-22T03:25:37.311Z,186.88
2023-04-22T03:26:37.315Z,203.51
2023-04-22T03:27:37.326Z,203.93
2023-04-22T03:28:37.332Z,201.03
2023-04-22T03:29:37.457Z,199.82
2023-04-22T03:30:37.349Z,197.14
2023-04-22T03:31:37.372Z,189.14
2023-04-22T03:32:37.425Z,199.21
2023-04-22T03:33:37.502Z,195.16
2023-04-22T03:34:37.538Z,179.55
2023-04-22T03:35:37.386Z,185.31
2023-04-22T03:36:37.487Z,185.34
2023-04-22T03:37:37.464Z,176.73
2023-04-22T03:38:37.435Z,181.48
2023-04-22T03:39:37.544Z,178.78
2023-04-22T03:40:37.513Z,178.40
2023-04-22T03:41:37.555Z,182.97
2023-04-22T03:42:37.535Z,178.48
2023-04-22T03:43:37.542Z,183.69
2023-04-22T03:44:37.592Z,186.47
2023-04-22T03:45:37.751Z,179.23
2023-04-22T03:46:37.621Z,188.43
2023-04-22T03:47:37.692Z,183.42
2023-04-22T03:48:37.688Z,170.16
2023-04-22T03:49:37.931Z,172.57
2023-04-22T03:50:37.734Z,170.57
2023-04-22T03:51:37.792Z,172.90
2023-04-22T03:52:37.733Z,183.37
2023-04-22T03:53:37.848Z,183.51
2023-04-22T03:54:37.810Z,197.81
2023-04-22T03:55:37.852Z,191.06
2023-04-22T03:56:37.861Z,178.84
2023-04-22T03:57:37.929Z,178.86
2023-04-22T03:58:37.882Z,172.37
2023-04-22T03:59:38.247Z,164.78
2023-04-22T04:00:37.999Z,168.87
2023-04-22T04:01:37.994Z,175.45
2023-04-22T04:02:38.196Z,163.80
2023-04-22T04:03:38.311Z,165.86
2023-04-22T04:04:38.316Z,172.49
2023-04-22T04:05:38.178Z,171.16
2023-04-22T04:06:38.137Z,165.45
2023-04-22T04:07:38.161Z,166.64
2023-04-22T04:08:38.224Z,161.61
2023-04-22T04:09:38.480Z,163.50
2023-04-22T04:10:38.280Z,170.56
2023-04-22T04:11:38.309Z,170.64
2023-04-22T04:12:38.372Z,164.38
2023-04-22T04:13:38.359Z,165.40
2023-04-22T04:14:38.393Z,155.37
2023-04-22T04:15:38.458Z,144.41
2023-04-22T04:16:38.465Z,144.75
2023-04-22T04:17:38.460Z,156.17
2023-04-22T04:18:38.542Z,148.75
2023-04-22T04:19:38.877Z,155.85
2023-04-22T04:20:38.534Z,159.40
2023-04-22T04:21:38.607Z,158.37
2023-04-22T04:22:38.636Z,162.81
2023-04-22T04:23:38.627Z,167.84
2023-04-22T04:24:38.736Z,173.21
2023-04-22T04:25:38.679Z,172.04
2023-04-22T04:26:38.756Z,184.16
2023-04-22T04:27:38.786Z,189.29
2023-04-22T04:28:38.804Z,190.42
2023-04-22T04:29:39.101Z,188.09
2023-04-22T04:30:39.010Z,192.98
2023-04-22T04:31:39.018Z,191.39
2023-04-22T04:32:39.104Z,198.61
2023-04-22T04:33:39.142Z,204.68
2023-04-22T04:34:39.093Z,206.81
2023-04-22T04:35:39.160Z,209.45
2023-04-22T04:36:39.151Z,201.98
2023-04-22T04:37:39.195Z,193.79
2023-04-22T04:38:39.273Z,196.73
2023-04-22T04:39:39.582Z,201.57
2023-04-22T04:40:39.356Z,203.89
2023-04-22T04:41:39.573Z,207.02
2023-04-22T04:42:39.466Z,205.55
2023-04-22T04:43:39.498Z,216.49
2023-04-22T04:44:39.508Z,221.14
2023-04-22T04:45:39.553Z,223.09
2023-04-22T04:46:39.674Z,219.16
2023-04-22T04:47:39.694Z,213.73
2023-04-22T04:48:39.688Z,207.85
2023-04-22T04:49:39.980Z,217.08
2023-04-22T04:50:39.772Z,224.01
2023-04-22T04:51:39.779Z,236.17
2023-04-22T04:52:39.810Z,246.05
2023-04-22T04:53:39.885Z,246.22
2023-04-22T04:54:39.906Z,246.07
2023-04-22T04:55:39.933Z,247.83
2023-04-22T04:56:39.958Z,248.96
2023-04-22T04:57:40.045Z,245.28
2023-04-22T04:58:39.993Z,241.60
2023-04-22T04:59:40.387Z,233.17
2023-04-22T05:00:40.121Z,226.19
2023-04-22T05:01:40.163Z,213.64
2023-04-22T05:02:40.265Z,215.29
2023-04-22T05:03:40.350Z,215.02
2023-04-22T05:04:40.320Z,199.68
2023-04-22T05:05:40.292Z,203.69
2023-04-22T05:06:40.172Z,202.90
2023-04-22T05:07:40.189Z,192.69
2023-04-22T05:08:40.273Z,190.19
2023-04-22T05:09:40.481Z,188.98
2023-04-22T05:10:40.266Z,196.39
2023-04-22T05:11:40.291Z,196.61
2023-04-22T05:12:40.367Z,202.84
2023-04-22T05:13:40.310Z,201.69
2023-04-22T05:14:40.369Z,207.80
2023-04-22T05:15:40.341Z,206.20
2023-04-22T05:16:40.469Z,208.73
2023-04-22T05:17:40.456Z,208.39
2023-04-22T05:18:40.374Z,199.84
2023-04-22T05:19:40.613Z,196.15
2023-04-22T05:20:40.463Z,185.49
2023-04-22T05:21:40.457Z,184.09
2023-04-22T05:22:40.431Z,181.30
2023-04-22T05:23:40.465Z,180.39
2023-04-22T05:24:40.512Z,181.82
2023-04-22T05:25:40.427Z,173.99
2023-04-22T05:26:40.459Z,192.03
2023-04-22T05:27:40.529Z,208.25
2023-04-22T05:28:40.753Z,197.36
2023-04-22T05:29:40.999Z,200.29
2023-04-22T05:30:40.615Z,205.85
2023-04-22T05:31:40.740Z,225.14
2023-04-22T05:32:40.766Z,246.96
2023-04-22T05:33:40.748Z,245.52
2023-04-22T05:34:40.868Z,243.23
2023-04-22T05:35:40.872Z,243.13
2023-04-22T05:36:41.095Z,229.85
2023-04-22T05:37:41.007Z,231.41
2023-04-22T05:38:41.053Z,227.61
2023-04-22T05:39:41.364Z,235.78
2023-04-22T05:40:43.799Z,245.11
2023-04-22T05:41:41.124Z,248.54
2023-04-22T05:42:41.109Z,242.10
2023-04-22T05:43:41.146Z,245.05
2023-04-22T05:44:41.126Z,248.73
2023-04-22T05:45:41.186Z,248.88
2023-04-22T05:46:41.137Z,244.99
2023-04-22T05:47:41.122Z,249.28
2023-04-22T05:48:41.083Z,245.22
2023-04-22T05:49:41.669Z,245.32
2023-04-22T05:50:41.050Z,246.87
2023-04-22T05:51:41.069Z,250.00
2023-04-22T05:52:41.084Z,247.86
2023-04-22T05:53:41.033Z,243.75
2023-04-22T05:54:41.082Z,240.48
2023-04-22T05:55:41.039Z,246.17
2023-04-22T05:56:41.025Z,247.92
2023-04-22T05:57:40.993Z,247.12
2023-04-22T05:58:41.015Z,242.57
2023-04-22T05:59:41.387Z,243.50
2023-04-22T06:00:41.151Z,242.00
2023-04-22T06:01:40.962Z,249.52
2023-04-22T06:02:41.158Z,246.26
2023-04-22T06:03:41.328Z,246.59
2023-04-22T06:04:41.308Z,244.31
2023-04-22T06:05:41.048Z,250.00
2023-04-22T06:06:40.976Z,244.30
2023-04-22T06:07:40.996Z,244.59
2023-04-22T06:08:40.976Z,246.59
2023-04-22T06:09:41.208Z,245.17
2023-04-22T06:10:40.957Z,241.33
2023-04-22T06:11:40.951Z,243.51
2023-04-22T06:12:40.944Z,237.10
2023-04-22T06:13:40.946Z,234.15
2023-04-22T06:14:40.901Z,233.79
2023-04-22T06:15:40.966Z,227.64
2023-04-22T06:16:40.924Z,238.92
2023-04-22T06:17:40.938Z,233.19
2023-04-22T06:18:40.880Z,241.28
2023-04-22T06:19:41.112Z,231.46
2023-04-22T06:20:40.895Z,224.01
2023-04-22T06:21:40.898Z,231.11
2023-04-22T06:22:40.870Z,223.06
2023-04-22T06:23:40.873Z,230.26
2023-04-22T06:24:40.882Z,227.43
2023-04-22T06:25:40.870Z,228.48
2023-04-22T06:26:40.832Z,224.76
2023-04-22T06:27:40.837Z,225.15
2023-04-22T06:28:40.790Z,225.20
2023-04-22T06:29:41.023Z,227.20
2023-04-22T06:30:40.820Z,226.81
2023-04-22T06:31:40.831Z,222.24
2023-04-22T06:32:40.857Z,229.16
2023-04-22T06:33:40.770Z,231.20
2023-04-22T06:34:40.791Z,234.23
2023-04-22T06:35:40.784Z,235.35
2023-04-22T06:36:40.765Z,231.67
2023-04-22T06:37:40.777Z,240.97
2023-04-22T06:38:40.768Z,237.47
2023-04-22T06:39:41.109Z,239.78
2023-04-22T06:40:40.775Z,239.89
2023-04-22T06:41:42.057Z,246.07
2023-04-22T06:42:40.688Z,245.26
2023-04-22T06:43:40.702Z,240.65
2023-04-22T06:44:40.715Z,250.00
2023-04-22T06:45:40.725Z,245.59
2023-04-22T06:46:40.779Z,233.32
2023-04-22T06:47:40.758Z,245.02
2023-04-22T06:48:40.687Z,249.47
2023-04-22T06:49:41.339Z,247.17
2023-04-22T06:50:40.703Z,242.27
2023-04-22T06:51:40.644Z,242.55
2023-04-22T06:52:40.657Z,244.94
2023-04-22T06:53:40.650Z,240.84
2023-04-22T06:54:40.683Z,241.01
2023-04-22T06:55:40.622Z,246.05
2023-04-22T06:56:41.349Z,229.92
2023-04-22T06:57:40.688Z,238.41
2023-04-22T06:58:40.673Z,232.11
2023-04-22T06:59:41.830Z,236.11
2023-04-22T07:00:40.801Z,240.91
2023-04-22T07:01:40.883Z,236.68
2023-04-22T07:02:41.946Z,221.05
2023-04-22T07:03:41.222Z,220.00
2023-04-22T07:04:41.079Z,228.09
2023-04-22T07:05:41.091Z,229.52
2023-04-22T07:06:41.101Z,220.56
2023-04-22T07:07:41.170Z,221.21
2023-04-22T07:08:41.165Z,213.49
2023-04-22T07:09:41.527Z,216.99
2023-04-22T07:10:41.302Z,227.05
2023-04-22T07:11:41.306Z,230.69
2023-04-22T07:12:41.361Z,233.85
2023-04-22T07:13:41.360Z,238.40
2023-04-22T07:14:41.358Z,233.36
2023-04-22T07:15:41.474Z,228.59
2023-04-22T07:16:41.600Z,228.35
2023-04-22T07:17:41.553Z,222.08
2023-04-22T07:18:41.502Z,222.10
2023-04-22T07:19:41.777Z,214.71
2023-04-22T07:20:41.569Z,221.33
2023-04-22T07:21:41.561Z,220.87
2023-04-22T07:22:41.620Z,216.58
2023-04-22T07:23:41.649Z,219.72
2023-04-22T07:24:41.680Z,222.13
2023-04-22T07:25:41.692Z,196.26
2023-04-22T07:26:41.702Z,200.79
2023-04-22T07:27:41.712Z,207.69
2023-04-22T07:28:41.768Z,203.67
2023-04-22T07:29:41.868Z,210.02
2023-04-22T07:30:41.775Z,191.56
2023-04-22T07:31:41.940Z,184.49
2023-04-22T07:32:41.869Z,188.91
2023-04-22T07:33:41.852Z,180.05
2023-04-22T07:34:41.853Z,175.10
2023-04-22T07:35:41.869Z,187.01
2023-04-22T07:36:41.970Z,187.51
2023-04-22T07:37:41.915Z,182.30
2023-04-22T07:38:41.940Z,178.78
2023-04-22T07:39:42.315Z,165.65
2023-04-22T07:40:41.995Z,168.55
2023-04-22T07:41:41.956Z,154.86
2023-04-22T07:42:42.814Z,158.57
2023-04-22T07:43:42.082Z,153.42
2023-04-22T07:44:42.079Z,157.72
2023-04-22T07:45:42.121Z,150.43
2023-04-22T07:46:42.092Z,162.39
2023-04-22T07:47:42.134Z,171.64
2023-04-22T07:48:42.163Z,169.48
2023-04-22T07:49:42.334Z,173.74
2023-04-22T07:50:42.177Z,160.78
2023-04-22T07:51:42.290Z,168.05
2023-04-22T07:52:42.237Z,146.98
2023-04-22T07:53:42.302Z,124.18
2023-04-22T07:54:42.310Z,118.78
2023-04-22T07:55:42.308Z,108.23
2023-04-22T07:56:42.323Z,122.26
2023-04-22T07:57:42.333Z,117.11
2023-04-22T07:58:42.500Z,97.20
2023-04-22T07:59:42.588Z,111.88
2023-04-22T08:00:42.471Z,114.72
2023-04-22T08:01:42.458Z,112.62
2023-04-22T08:02:42.516Z,90.49
2023-04-22T08:03:42.679Z,116.75
2023-04-22T08:04:42.651Z,90.37
2023-04-22T08:05:42.522Z,104.65
2023-04-22T08:06:42.660Z,96.99
2023-04-22T08:07:42.733Z,111.66
2023-04-22T08:08:42.606Z,125.69
2023-04-22T08:09:42.630Z,143.70
2023-04-22T08:10:42.671Z,169.30
2023-04-22T08:11:42.676Z,141.94
2023-04-22T08:12:42.685Z,156.24
2023-04-22T08:13:42.694Z,172.57
2023-04-22T08:14:42.749Z,168.11
2023-04-22T08:15:42.786Z,166.58
2023-04-22T08:16:42.821Z,155.12
2023-04-22T08:17:42.882Z,161.66
2023-04-22T08:18:42.825Z,164.31
2023-04-22T08:19:42.829Z,164.47
2023-04-22T08:20:42.867Z,174.00
2023-04-22T08:21:42.909Z,181.55
2023-04-22T08:22:42.909Z,182.93
2023-04-22T08:23:42.916Z,177.42
2023-04-22T08:24:42.929Z,154.74
2023-04-22T08:25:43.037Z,160.26
2023-04-22T08:26:42.988Z,158.62
2023-04-22T08:27:43.002Z,165.29
2023-04-22T08:28:43.296Z,171.27
2023-04-22T08:29:43.365Z,166.15
2023-04-22T08:30:42.959Z,177.54
2023-04-22T08:31:43.232Z,160.98
2023-04-22T08:32:42.997Z,166.76
2023-04-22T08:33:42.991Z,165.66
2023-04-22T08:34:43.973Z,160.83
2023-04-22T08:35:42.948Z,178.46
2023-04-22T08:36:43.010Z,182.14
2023-04-22T08:37:43.029Z,169.21
2023-04-22T08:38:43.014Z,161.97
2023-04-22T08:39:43.050Z,170.58
2023-04-22T08:40:43.044Z,177.49
2023-04-22T08:41:43.044Z,183.80
2023-04-22T08:42:43.344Z,152.76
2023-04-22T08:43:42.992Z,140.90
2023-04-22T08:44:43.076Z,155.77
2023-04-22T08:45:43.022Z,167.52
2023-04-22T08:46:43.106Z,167.89
2023-04-22T08:47:43.137Z,163.09
2023-04-22T08:48:43.032Z,166.09
2023-04-22T08:49:43.084Z,170.44
2023-04-22T08:50:43.210Z,169.13
2023-04-22T08:51:43.221Z,170.02
2023-04-22T08:52:43.267Z,169.63
2023-04-22T08:53:43.353Z,161.74
2023-04-22T08:54:43.301Z,163.71
2023-04-22T08:55:43.332Z,165.45
2023-04-22T08:56:43.478Z,159.14
2023-04-22T08:57:43.447Z,169.73
2023-04-22T08:58:43.527Z,164.97
2023-04-22T08:59:43.699Z,170.50
2023-04-22T09:00:43.582Z,163.88
2023-04-22T09:01:43.667Z,151.79
2023-04-22T09:02:43.686Z,150.38
2023-04-22T09:03:43.757Z,160.32
2023-04-22T09:04:43.780Z,160.98
2023-04-22T09:05:43.785Z,159.87
2023-04-22T09:06:43.824Z,147.64
2023-04-22T09:07:43.933Z,157.80
2023-04-22T09:08:43.956Z,160.12
2023-04-22T09:09:43.972Z,154.06
2023-04-22T09:10:44.072Z,164.27
2023-04-22T09:11:44.066Z,155.49
2023-04-22T09:12:44.231Z,155.22
2023-04-22T09:13:44.282Z,157.29
2023-04-22T09:14:44.258Z,150.95
2023-04-22T09:15:44.300Z,148.64
2023-04-22T09:16:44.387Z,153.22
2023-04-22T09:17:44.416Z,163.77
2023-04-22T09:18:44.527Z,165.57
2023-04-22T09:19:44.551Z,160.08
2023-04-22T09:20:44.581Z,146.10
2023-04-22T09:21:45.495Z,153.23
2023-04-22T09:22:44.722Z,155.55
2023-04-22T09:23:44.817Z,162.61
2023-04-22T09:24:44.823Z,163.35
2023-04-22T09:25:44.834Z,158.16
2023-04-22T09:26:44.923Z,171.26
2023-04-22T09:27:45.012Z,165.25
2023-04-22T09:28:45.260Z,155.65
2023-04-22T09:29:45.106Z,146.17
2023-04-22T09:30:45.163Z,156.15
2023-04-22T09:31:45.228Z,155.46
2023-04-22T09:32:45.380Z,165.94
2023-04-22T09:33:45.301Z,157.68
2023-04-22T09:34:45.482Z,162.62
2023-04-22T09:35:45.493Z,155.28
2023-04-22T09:36:45.512Z,126.60
2023-04-22T09:37:49.532Z,132.95
2023-04-22T09:38:45.626Z,133.35
2023-04-22T09:39:45.579Z,133.95
2023-04-22T09:40:45.528Z,138.46
2023-04-22T09:41:45.520Z,139.46
2023-04-22T09:42:45.551Z,143.08
2023-04-22T09:43:45.606Z,145.25
2023-04-22T09:44:45.513Z,149.77
2023-04-22T09:45:45.627Z,133.13
2023-04-22T09:46:45.635Z,121.49
2023-04-22T09:47:45.564Z,117.40
2023-04-22T09:48:45.512Z,108.93
2023-04-22T09:49:45.504Z,115.24
2023-04-22T09:50:45.480Z,115.26
2023-04-22T09:51:45.461Z,119.26
2023-04-22T09:52:45.465Z,120.89
2023-04-22T09:53:45.469Z,126.07
2023-04-22T09:54:45.475Z,133.29
2023-04-22T09:55:45.483Z,117.79
2023-04-22T09:56:45.451Z,125.05
2023-04-22T09:57:45.498Z,128.50
2023-04-22T09:58:45.931Z,137.59
2023-04-22T09:59:45.623Z,128.93
2023-04-22T10:00:45.681Z,129.59
2023-04-22T10:01:45.731Z,133.81
2023-04-22T10:02:45.928Z,132.61
2023-04-22T10:03:45.895Z,121.84
2023-04-22T10:04:45.890Z,111.38
2023-04-22T10:05:45.955Z,120.13
2023-04-22T10:06:46.289Z,127.89
2023-04-22T10:07:46.211Z,120.25
2023-04-22T10:08:46.391Z,110.35
2023-04-22T10:09:46.194Z,99.80
2023-04-22T10:10:46.302Z,104.30
2023-04-22T10:11:46.315Z,116.13
2023-04-22T10:12:46.423Z,119.31
2023-04-22T10:13:46.438Z,118.70
2023-04-22T10:14:46.489Z,114.72
2023-04-22T10:15:46.622Z,99.07
2023-04-22T10:16:46.722Z,106.89
2023-04-22T10:17:46.798Z,115.51
2023-04-22T10:18:46.769Z,111.25
2023-04-22T10:19:46.796Z,103.73
2023-04-22T10:20:46.835Z,120.44
2023-04-22T10:21:46.890Z,108.05
2023-04-22T10:22:46.994Z,100.80
2023-04-22T10:23:47.154Z,111.40
2023-04-22T10:24:47.120Z,112.17
2023-04-22T10:25:47.130Z,116.27
2023-04-22T10:26:47.227Z,123.53
2023-04-22T10:27:47.281Z,112.37
2023-04-22T10:28:47.348Z,109.34
2023-04-22T10:29:47.423Z,126.34
2023-04-22T10:30:47.436Z,128.80
2023-04-22T10:31:47.468Z,128.98
2023-04-22T10:32:47.657Z,145.53
2023-04-22T10:33:47.646Z,141.95
2023-04-22T10:34:47.902Z,138.02
2023-04-22T10:35:47.821Z,147.29
2023-04-22T10:36:47.808Z,139.13
2023-04-22T10:37:47.875Z,152.89
2023-04-22T10:38:47.931Z,144.22
2023-04-22T10:39:47.934Z,144.49
2023-04-22T10:40:48.039Z,146.92
2023-04-22T10:41:48.044Z,157.22
2023-04-22T10:42:48.871Z,158.26
2023-04-22T10:43:48.233Z,161.72
2023-04-22T10:44:48.266Z,164.81
2023-04-22T10:45:48.387Z,178.19
2023-04-22T10:46:48.407Z,170.30
2023-04-22T10:47:48.476Z,169.62
2023-04-22T10:48:48.517Z,170.04
2023-04-22T10:49:48.578Z,168.56
2023-04-22T10:50:48.622Z,163.78
2023-04-22T10:51:48.689Z,176.40
2023-04-22T10:52:48.800Z,176.50
2023-04-22T10:53:48.805Z,183.06
2023-04-22T10:54:48.859Z,185.60
2023-04-22T10:55:48.964Z,182.42
2023-04-22T10:56:57.452Z,182.86
2023-04-22T10:57:50.000Z,173.59
2023-04-22T10:58:48.934Z,172.88
2023-04-22T10:59:50.493Z,168.37
2023-04-22T11:00:53.548Z,165.47
2023-04-22T11:01:50.126Z,173.09
2023-04-22T11:02:49.030Z,169.02
2023-04-22T11:03:49.298Z,174.39
2023-04-22T11:04:48.935Z,176.52
2023-04-22T11:05:48.932Z,181.97
2023-04-22T11:06:48.934Z,171.28
2023-04-22T11:07:49.015Z,180.08
2023-04-22T11:08:48.959Z,175.64
2023-04-22T11:09:48.959Z,179.97
2023-04-22T11:10:48.966Z,182.41
2023-04-22T11:11:49.000Z,164.12
2023-04-22T11:12:49.113Z,170.31
2023-04-22T11:13:49.293Z,179.14
2023-04-22T11:14:49.232Z,182.59
2023-04-22T11:15:49.505Z,188.03
2023-04-22T11:16:49.417Z,183.51
2023-04-22T11:17:49.470Z,171.48
2023-04-22T11:18:49.468Z,165.94
2023-04-22T11:19:49.563Z,158.26
2023-04-22T11:20:49.576Z,170.52
2023-04-22T11:21:51.257Z,158.88
2023-04-22T11:22:49.698Z,162.07
2023-04-22T11:23:49.818Z,157.17
2023-04-22T11:24:49.834Z,158.76
2023-04-22T11:25:49.900Z,166.56
2023-04-22T11:26:49.994Z,167.68
2023-04-22T11:27:50.091Z,171.98
2023-04-22T11:28:50.067Z,177.06
2023-04-22T11:29:50.247Z,173.99
2023-04-22T11:30:50.160Z,183.84
2023-04-22T11:31:50.206Z,181.52
2023-04-22T11:32:50.446Z,184.02
2023-04-22T11:33:50.483Z,179.79
2023-04-22T11:34:50.381Z,180.43
2023-04-22T11:35:50.472Z,188.01
2023-04-22T11:36:50.531Z,178.02
2023-04-22T11:37:50.579Z,169.23
2023-04-22T11:38:50.623Z,178.34
2023-04-22T11:40:13.168Z,182.38
2023-04-22T11:40:51.720Z,182.50
2023-04-22T11:41:50.640Z,183.71
2023-04-22T11:42:50.662Z,184.21
2023-04-22T11:43:50.657Z,188.66
2023-04-22T11:44:50.638Z,183.93
2023-04-22T11:45:50.679Z,189.85
2023-04-22T11:46:50.665Z,193.33
2023-04-22T11:47:50.715Z,195.45
2023-04-22T11:48:50.669Z,201.35
2023-04-22T11:49:50.771Z,197.82
2023-04-22T11:50:50.717Z,198.85
2023-04-22T11:51:50.832Z,199.02
2023-04-22T11:52:50.816Z,194.22
2023-04-22T11:53:50.897Z,192.04
2023-04-22T11:54:50.942Z,181.33
2023-04-22T11:55:51.019Z,181.34
2023-04-22T11:56:51.014Z,185.46
2023-04-22T11:57:51.938Z,192.50
2023-04-22T11:58:51.134Z,191.81
2023-04-22T11:59:51.212Z,186.90
2023-04-22T12:00:51.269Z,188.81
2023-04-22T12:01:51.346Z,187.13
2023-04-22T12:02:51.542Z,198.63
2023-04-22T12:03:51.472Z,189.70
2023-04-22T12:04:51.506Z,179.77
2023-04-22T12:05:51.497Z,186.99
2023-04-22T12:06:51.562Z,192.79
2023-04-22T12:07:51.632Z,198.89
2023-04-22T12:08:51.717Z,188.46
2023-04-22T12:09:51.723Z,191.23
2023-04-22T12:10:51.822Z,182.82
2023-04-22T12:11:51.841Z,194.14
2023-04-22T12:12:51.873Z,194.32
2023-04-22T12:13:51.938Z,193.44
2023-04-22T12:14:51.985Z,196.98
2023-04-22T12:15:52.075Z,194.23
2023-04-22T12:16:52.165Z,194.86
2023-04-22T12:17:52.259Z,186.75
2023-04-22T12:18:52.218Z,184.84
2023-04-22T12:19:52.254Z,182.97
2023-04-22T12:20:52.335Z,173.58
2023-04-22T12:21:52.451Z,176.18
2023-04-22T12:22:52.425Z,165.28
2023-04-22T12:23:52.485Z,168.46
2023-04-22T12:24:52.543Z,154.45
2023-04-22T12:25:52.584Z,143.71
2023-04-22T12:26:52.639Z,132.88
2023-04-22T12:27:52.637Z,150.76
2023-04-22T12:28:52.754Z,143.88
2023-04-22T12:29:52.744Z,151.57
2023-04-22T12:30:52.813Z,159.22
2023-04-22T12:31:52.830Z,159.62
2023-04-22T12:32:52.922Z,162.09
2023-04-22T12:33:52.991Z,177.34